Time;durP1;ratioP1;P1;durP2;ratioP2;P2;SDS_P1;SDS_P2;PMS_P1;PMS_P2;Temp;Humidity;BMP_temperature;BMP_pressure;BME280_temperature;BME280_humidity;BME280_pressure;Samples;Min_cycle;Max_cycle;Signal;HPM_P1;HPM_P2
2021/10/02 00:36:19;;;;;;;9.40;4.45;;;15.10;99.70;;;13.04;100.00;100247.31;4977050;28;20141;-72
2021/10/02 00:41:48;;;;;;;8.30;4.63;;;15.10;99.70;;;13.09;100.00;100250.28;5023792;28;20045;-71
2021/10/02 00:47:02;;;;;;;7.93;4.93;;;15.10;99.90;;;13.03;100.00;100246.50;5023438;28;20576;-72
2021/10/02 00:49:30;;;;;;;6.32;4.15;;;15.10;99.90;;;13.00;100.00;100243.31;5004478;28;20054;-72
2021/10/02 00:51:57;;;;;;;9.07;4.85;;;15.10;99.90;;;13.06;100.00;100250.69;5023617;28;20088;-72
2021/10/02 00:54:24;;;;;;;8.48;4.30;;;15.10;99.90;;;13.09;100.00;100251.13;5002600;28;20101;-71
2021/10/02 00:56:52;;;;;;;8.38;4.88;;;15.20;99.90;;;13.10;100.00;100257.44;5003844;28;20034;-71
2021/10/02 00:59:19;;;;;;;9.07;5.35;;;15.10;99.90;;;13.07;100.00;100260.56;5003447;28;20097;-71
2021/10/02 01:01:55;;;;;;;9.68;4.75;;;15.10;99.90;;;13.08;100.00;100254.06;5019099;28;20046;-72
2021/10/02 01:04:40;;;;;;;10.90;4.55;;;15.10;99.90;;;13.05;100.00;100246.28;5003953;28;20585;-72
2021/10/02 01:07:16;;;;;;;8.25;4.80;;;15.10;99.90;;;13.08;100.00;100254.06;5000441;28;20049;-72
2021/10/02 01:10:06;;;;;;;9.00;4.40;;;15.10;99.90;;;13.08;100.00;100248.63;5003631;28;20858;-72
2021/10/02 01:12:50;;;;;;;8.18;3.90;;;15.10;99.90;;;13.01;100.00;100242.28;5002853;28;20834;-71
2021/10/02 01:15:30;;;;;;;7.05;4.88;;;15.10;99.90;;;13.06;100.00;100240.63;5009920;28;20045;-72
2021/10/02 01:18:05;;;;;;;6.10;3.80;;;15.10;99.90;;;13.13;100.00;100240.63;5009831;28;20042;-71
2021/10/02 01:20:50;;;;;;;8.15;4.35;;;15.10;99.90;;;13.11;100.00;100229.06;5009836;28;20076;-72
2021/10/02 01:23:49;;;;;;;11.32;4.75;;;15.10;99.90;;;13.11;100.00;100227.16;5010003;28;20042;-71
2021/10/02 01:26:32;;;;;;;6.88;3.92;;;15.10;99.90;;;13.17;100.00;100225.47;5008072;28;20050;-72
2021/10/02 01:29:07;;;;;;;9.07;4.78;;;15.10;99.90;;;13.11;100.00;100215.41;5009467;28;20070;-72
2021/10/02 01:31:41;;;;;;;8.35;4.65;;;15.10;99.90;;;13.10;100.00;100219.19;5009676;28;20045;-72
2021/10/02 01:34:15;;;;;;;7.35;4.38;;;15.10;99.90;;;13.03;100.00;100218.34;5008599;28;20096;-72
2021/10/02 01:36:54;;;;;;;7.10;4.53;;;15.10;99.90;;;13.07;100.00;100219.59;5009869;28;20050;-72
2021/10/02 01:47:53;;;;;;;12.00;4.37;;;15.10;99.90;;;13.04;100.00;100204.47;5009885;28;20052;-72
2021/10/02 01:50:22;;;;;;;8.40;4.22;;;15.10;99.90;;;13.02;100.00;100201.13;5009719;28;20054;-73
2021/10/02 01:52:51;;;;;;;7.03;4.63;;;15.10;99.90;;;13.01;100.00;100198.59;5010051;28;20042;-72
2021/10/02 01:55:23;;;;;;;7.10;4.15;;;15.10;99.90;;;12.96;100.00;100207.38;5009683;28;20145;-73
2021/10/02 01:57:54;;;;;;;;;;;15.10;99.90;;;13.01;100.00;100214.97;5010600;28;20127;-73
2021/10/02 02:00:23;;;;;;;5.47;3.70;;;15.10;99.90;;;13.05;100.00;100210.78;5008222;28;19980;-73
2021/10/02 02:02:55;;;;;;;9.82;4.75;;;15.10;99.90;;;13.06;100.00;100210.56;5010017;28;20080;-73
2021/10/02 02:05:26;;;;;;;8.05;4.70;;;15.10;99.90;;;13.03;100.00;100212.88;5009600;28;20088;-73
2021/10/02 02:07:56;;;;;;;;;;;15.10;99.90;;;13.01;100.00;100207.63;5009974;28;20052;-73
2021/10/02 02:10:25;;;;;;;8.63;4.60;;;15.10;99.90;;;12.94;100.00;100208.66;5009373;28;19932;-73
2021/10/02 02:12:55;;;;;;;9.07;5.20;;;15.10;99.90;;;12.97;100.00;100205.50;4994311;28;20085;-73
2021/10/02 02:15:27;;;;;;;9.88;4.65;;;15.10;99.90;;;12.98;100.00;100208.00;4989942;28;20042;-72
2021/10/02 02:18:00;;;;;;;9.80;4.70;;;15.10;99.90;;;12.96;100.00;100209.28;4989606;28;20591;-73
2021/10/02 02:20:32;;;;;;;6.65;4.10;;;15.10;99.90;;;13.00;100.00;100203.19;4988772;28;20054;-73
2021/10/02 02:23:00;;;;;;;7.60;4.50;;;15.10;99.90;;;13.02;100.00;100192.06;4998862;28;20084;-73
2021/10/02 02:25:28;;;;;;;8.00;4.50;;;15.10;99.90;;;13.02;100.00;100189.31;5008953;28;20765;-73
2021/10/02 02:27:57;;;;;;;6.50;4.40;;;15.10;99.90;;;13.07;100.00;100186.81;5008642;28;20489;-73
2021/10/02 02:30:26;;;;;;;12.52;6.00;;;15.10;99.90;;;13.07;100.00;100178.63;5008648;28;20069;-72
2021/10/02 02:32:53;;;;;;;9.18;5.32;;;15.10;99.90;;;13.05;100.00;100180.72;5008771;28;20076;-73
2021/10/02 02:35:22;;;;;;;6.30;4.47;;;15.10;99.90;;;13.09;100.00;100184.72;5008606;28;20081;-73
2021/10/02 02:37:50;;;;;;;7.05;4.60;;;15.10;99.90;;;13.06;100.00;100179.66;5008734;28;20154;-73
2021/10/02 02:40:18;;;;;;;9.75;5.30;;;15.00;99.90;;;13.08;100.00;100177.59;5007450;28;20038;-73
2021/10/02 02:42:47;;;;;;;9.05;5.13;;;15.10;99.90;;;13.08;100.00;100177.59;5008816;28;20038;-73
2021/10/02 02:45:16;;;;;;;9.20;5.10;;;15.10;99.90;;;13.15;100.00;100185.75;5023634;28;20045;-73
2021/10/02 02:47:58;;;;;;;10.30;5.07;;;15.10;99.90;;;13.17;100.00;100186.41;5007199;28;20042;-72
2021/10/02 02:50:31;;;;;;;7.97;5.28;;;15.10;99.90;;;13.09;100.00;100174.63;5008540;28;20057;-73
2021/10/02 02:53:04;;;;;;;8.70;5.13;;;15.10;99.90;;;13.08;100.00;100177.59;5023609;28;20049;-73
2021/10/02 02:55:41;;;;;;;8.27;5.68;;;15.10;99.90;;;13.12;100.00;100184.31;5020884;28;20062;-73
2021/10/02 02:58:10;;;;;;;8.75;5.15;;;15.10;99.90;;;13.09;100.00;100184.72;4988355;28;20085;-73
2021/10/02 03:00:52;;;;;;;10.18;5.30;;;15.10;99.90;;;13.09;100.00;100185.53;4988797;28;20043;-73
2021/10/02 03:03:26;;;;;;;8.20;4.85;;;15.10;99.90;;;13.13;100.00;100185.97;4987112;28;20046;-73
2021/10/02 03:05:55;;;;;;;8.10;4.68;;;15.10;99.90;;;13.04;100.00;100195.41;4988444;28;20088;-73
2021/10/02 03:08:24;;;;;;;6.43;4.22;;;15.10;99.90;;;13.09;100.00;100195.63;4988302;28;20395;-72
2021/10/02 03:10:59;;;;;;;11.52;4.68;;;15.10;99.90;;;13.09;100.00;100196.47;4988330;28;20835;-72
2021/10/02 03:13:29;;;;;;;10.32;4.93;;;15.10;99.90;;;13.11;100.00;100193.53;5007900;28;20048;-73
2021/10/02 03:15:57;;;;;;;8.13;4.60;;;15.10;99.90;;;13.16;100.00;100192.94;5006664;28;20104;-73
2021/10/02 03:18:28;;;;;;;9.25;5.20;;;15.10;99.90;;;13.11;100.00;100188.91;5007646;28;20148;-73
2021/10/02 03:20:57;;;;;;;8.18;4.45;;;15.10;99.90;;;13.14;100.00;100187.66;5006881;28;20053;-73
2021/10/02 03:23:27;;;;;;;8.70;4.80;;;15.10;99.90;;;13.14;100.00;100179.47;5008067;28;20092;-73
2021/10/02 03:25:55;;;;;;;7.78;4.38;;;15.10;99.90;;;13.11;100.00;100188.06;5007727;28;20642;-73
2021/10/02 03:28:23;;;;;;;11.77;4.68;;;15.10;99.90;;;13.04;100.00;100188.09;5007563;28;20046;-73
2021/10/02 03:30:51;;;;;;;8.40;4.72;;;15.10;99.90;;;13.05;100.00;100186.19;5006184;28;20884;-73
2021/10/02 03:33:22;;;;;;;8.63;5.03;;;15.10;99.90;;;13.08;100.00;100180.31;5007926;28;20083;-73
2021/10/02 03:35:51;;;;;;;7.15;4.38;;;15.10;99.90;;;13.04;100.00;100179.03;5006206;28;20074;-73
2021/10/02 03:38:20;;;;;;;8.95;3.90;;;15.10;99.90;;;13.07;100.00;100170.41;5020295;28;20056;-73
2021/10/02 03:40:48;;;;;;;6.63;4.15;;;15.10;99.90;;;13.09;100.00;100157.38;5007641;28;20498;-73
2021/10/02 03:43:16;;;;;;;6.85;4.20;;;15.10;99.90;;;13.07;100.00;100156.75;5007652;28;20560;-73
2021/10/02 03:45:43;;;;;;;6.93;3.97;;;15.10;99.90;;;13.09;100.00;100163.69;5007571;28;20073;-73
2021/10/02 03:48:11;;;;;;;7.35;4.18;;;15.10;99.90;;;13.10;100.00;100162.66;5006995;28;20046;-72
2021/10/02 03:50:38;;;;;;;9.23;4.28;;;15.10;99.90;;;13.10;100.00;100161.81;5007590;28;20046;-73
2021/10/02 03:53:07;;;;;;;6.65;3.83;;;15.10;99.90;;;13.14;100.00;100160.34;5007622;28;20132;-73
2021/10/02 03:55:34;;;;;;;9.27;4.50;;;15.10;99.90;;;13.14;100.00;100154.88;5006273;28;20057;-73
2021/10/02 03:58:01;;;;;;;7.78;4.40;;;15.10;99.90;;;13.08;100.00;100145.63;5006664;28;20099;-73
2021/10/02 04:00:29;;;;;;;7.60;3.95;;;15.10;99.90;;;13.06;100.00;100145.00;5022332;28;20101;-73
2021/10/02 04:02:56;;;;;;;9.02;4.60;;;15.10;99.90;;;13.15;100.00;100156.53;5022632;28;20078;-73
2021/10/02 04:05:23;;;;;;;7.45;4.28;;;15.10;99.90;;;13.15;100.00;100148.34;5007502;28;20080;-72
2021/10/02 04:07:51;;;;;;;8.10;4.50;;;15.10;99.90;;;13.16;100.00;100150.03;5022345;28;20498;-73
2021/10/02 04:10:19;;;;;;;8.05;4.20;;;15.10;99.90;;;13.16;100.00;100152.78;5007109;28;20070;-73
2021/10/02 04:12:47;;;;;;;7.47;4.07;;;15.10;99.90;;;13.16;100.00;100151.94;5007117;28;20092;-73
2021/10/02 04:15:15;;;;;;;5.55;3.42;;;15.10;99.90;;;13.18;100.00;100158.88;5007266;28;20073;-73
2021/10/02 04:17:42;;;;;;;8.60;4.82;;;15.10;99.90;;;13.21;100.00;100160.31;5007303;28;20053;-73
2021/10/02 04:20:11;;;;;;;7.07;3.90;;;15.10;99.90;;;13.20;100.00;100161.41;5006734;28;20046;-75
2021/10/02 04:22:38;;;;;;;6.95;4.45;;;15.10;99.90;;;13.19;100.00;100152.34;5007033;28;20922;-73
2021/10/02 04:25:07;;;;;;;6.72;3.85;;;15.10;99.90;;;13.18;100.00;100158.88;5007013;28;20042;-74
2021/10/02 04:27:37;;;;;;;7.18;4.43;;;15.10;99.90;;;13.13;100.00;100169.56;4990097;28;20073;-73
2021/10/02 04:30:06;;;;;;;7.72;4.43;;;15.10;99.90;;;13.14;100.00;100171.28;5000431;28;20517;-73
2021/10/02 04:32:34;;;;;;;10.35;5.20;;;15.10;99.90;;;13.15;100.00;100167.47;5006781;28;20120;-73
2021/10/02 04:35:01;;;;;;;6.97;4.70;;;15.10;99.90;;;13.16;100.00;100171.06;5007064;28;20049;-74
2021/10/02 04:37:29;;;;;;;10.85;4.72;;;15.10;99.90;;;13.13;100.00;100166.00;5007003;28;20050;-73
2021/10/02 04:39:56;;;;;;;13.15;5.22;;;15.10;99.90;;;13.12;100.00;100167.91;5006533;28;20078;-73
2021/10/02 04:42:23;;;;;;;7.13;4.55;;;15.10;99.90;;;13.15;100.00;100161.16;5007547;28;20101;-73
2021/10/02 04:44:52;;;;;;;6.88;4.63;;;15.10;99.90;;;13.16;100.00;100169.16;5010198;28;20050;-74
2021/10/02 04:47:19;;;;;;;9.57;5.55;;;15.10;99.90;;;13.14;100.00;100159.50;5009160;28;20524;-74
2021/10/02 04:49:47;;;;;;;10.10;4.75;;;15.10;99.90;;;13.13;100.00;100157.81;5008996;28;20107;-74
2021/10/02 04:52:15;;;;;;;7.78;5.05;;;15.10;99.90;;;13.17;100.00;100153.59;5009083;28;20101;-74
2021/10/02 04:54:42;;;;;;;9.07;4.72;;;15.10;99.90;;;13.17;100.00;100159.91;5010182;28;20465;-73
2021/10/02 04:57:09;;;;;;;10.23;4.38;;;15.10;99.90;;;13.18;100.00;100156.13;4988966;28;20039;-73
2021/10/02 04:59:37;;;;;;;8.13;4.20;;;15.10;99.90;;;13.18;100.00;100167.06;4990339;28;20789;-73
2021/10/02 05:02:06;;;;;;;10.13;4.97;;;15.10;99.90;;;13.22;100.00;100171.06;5005559;28;20129;-73
2021/10/02 05:04:34;;;;;;;7.65;4.78;;;15.10;99.90;;;13.16;100.00;100169.16;4990670;28;20074;-73
2021/10/02 05:07:01;;;;;;;9.10;4.85;;;15.10;99.90;;;13.13;100.00;100169.56;4990556;28;20410;-73
2021/10/02 05:09:28;;;;;;;9.30;4.80;;;15.10;99.90;;;13.15;100.00;100167.47;4990009;28;20042;-73
2021/10/02 05:11:57;;;;;;;9.60;4.43;;;15.10;99.90;;;13.14;100.00;100168.53;4997706;28;20135;-73
2021/10/02 05:14:25;;;;;;;8.65;4.75;;;15.10;99.90;;;13.14;100.00;100165.81;5008399;28;20053;-72
2021/10/02 05:16:53;;;;;;;7.25;4.90;;;15.10;99.90;;;13.15;100.00;100159.28;5010204;28;20544;-72
2021/10/02 05:19:21;;;;;;;10.63;5.47;;;15.10;99.90;;;13.17;100.00;100159.91;5007969;28;20042;-72
2021/10/02 05:21:49;;;;;;;9.35;4.95;;;15.10;99.90;;;13.13;100.00;100168.75;5009907;28;20052;-72
2021/10/02 05:24:16;;;;;;;10.00;5.85;;;15.10;99.90;;;13.15;100.00;100167.47;5009738;28;20578;-71
2021/10/02 05:26:43;;;;;;;9.10;4.90;;;15.10;99.90;;;13.21;100.00;100161.19;5008176;28;20430;-70
2021/10/02 05:29:11;;;;;;;17.88;5.13;;;15.10;99.90;;;13.23;100.00;100158.22;5009511;28;20088;-69
2021/10/02 05:31:38;;;;;;;8.05;5.30;;;15.10;99.90;;;13.24;100.00;100158.00;5009543;28;20525;-69
2021/10/02 05:34:05;;;;;;;8.25;5.22;;;15.10;99.90;;;13.19;100.00;100152.34;5008883;28;20679;-70
2021/10/02 05:36:34;;;;;;;8.68;5.20;;;15.10;99.90;;;13.22;100.00;100151.91;5009096;28;20104;-70
2021/10/02 05:39:03;;;;;;;10.63;5.45;;;15.10;99.90;;;13.20;100.00;100147.72;5005123;28;20415;-69
2021/10/02 05:41:30;;;;;;;6.78;4.43;;;15.10;99.90;;;13.21;100.00;100144.78;4989791;28;20516;-69
2021/10/02 05:43:58;;;;;;;8.25;4.75;;;15.10;99.90;;;13.15;100.00;100144.78;4990012;28;20070;-70
2021/10/02 05:46:25;;;;;;;7.80;4.60;;;15.10;99.90;;;13.14;100.00;100149.41;4989706;28;20046;-69
2021/10/02 05:48:52;;;;;;;10.07;4.72;;;15.10;99.90;;;13.15;100.00;100136.59;4989230;28;20038;-69
2021/10/02 05:51:20;;;;;;;9.02;4.38;;;15.10;99.90;;;13.16;100.00;100143.75;4989723;28;20053;-70
2021/10/02 05:53:49;;;;;;;7.47;4.28;;;15.10;99.90;;;13.13;100.00;100141.41;4989428;28;20077;-69
2021/10/02 05:56:16;;;;;;;7.45;3.95;;;15.10;99.90;;;13.09;100.00;100138.25;4989693;28;20050;-69
2021/10/02 05:58:43;;;;;;;7.00;4.40;;;15.10;99.90;;;13.08;100.00;100136.59;5003959;28;20058;-70
2021/10/02 06:01:11;;;;;;;7.07;4.60;;;15.10;99.90;;;13.13;100.00;100141.41;5004239;28;20051;-69
2021/10/02 06:03:38;;;;;;;7.72;4.00;;;15.10;99.90;;;13.13;100.00;100152.34;4989261;28;20048;-69
2021/10/02 06:06:05;;;;;;;7.32;4.25;;;15.10;99.90;;;13.02;100.00;100156.53;4988387;28;20046;-69
2021/10/02 06:08:33;;;;;;;9.77;4.60;;;15.10;99.90;;;13.02;100.00;100157.41;5026359;22;20052;-70
2021/10/02 06:11:02;;;;;;;8.48;4.40;;;15.10;99.90;;;12.99;100.00;100165.16;5049699;28;20056;-69
2021/10/02 06:13:32;;;;;;;6.68;4.28;;;15.10;99.90;;;12.98;100.00;100169.78;5049251;28;20465;-70
2021/10/02 06:16:00;;;;;;;8.00;4.95;;;15.00;99.90;;;12.97;100.00;100170.84;5063268;28;20054;-70
2021/10/02 06:18:27;;;;;;;7.88;4.57;;;15.00;99.90;;;12.98;100.00;100166.22;5030632;28;20045;-72
2021/10/02 06:20:55;;;;;;;8.43;4.43;;;15.00;99.90;;;13.03;100.00;100169.16;5046244;28;20055;-70
2021/10/02 06:23:23;;;;;;;8.50;4.43;;;15.00;99.90;;;13.06;100.00;100168.72;5028693;28;20053;-70
2021/10/02 06:25:50;;;;;;;8.70;5.10;;;15.00;99.90;;;13.05;100.00;100176.09;5030171;28;20053;-69
2021/10/02 06:28:20;;;;;;;7.65;4.88;;;15.00;99.90;;;13.08;100.00;100177.59;5028351;28;20083;-70
2021/10/02 06:30:47;;;;;;;7.28;4.60;;;15.00;99.90;;;13.07;100.00;100173.16;5029406;28;20047;-71
2021/10/02 06:33:15;;;;;;;7.50;4.47;;;15.00;99.90;;;13.12;100.00;100176.09;5029029;28;20085;-70
2021/10/02 06:35:42;;;;;;;7.80;4.72;;;15.00;99.90;;;13.18;100.00;100172.53;5029179;28;20119;-71
2021/10/02 06:38:09;;;;;;;6.68;4.13;;;15.00;99.90;;;13.13;100.00;100180.50;5028167;28;20045;-70
2021/10/02 06:40:40;;;;;;;10.85;5.30;;;15.10;99.90;;;13.10;100.00;100186.41;5028303;28;20104;-70
2021/10/02 06:43:07;;;;;;;7.95;4.40;;;15.10;99.90;;;13.15;100.00;100181.13;5027987;28;20048;-72
2021/10/02 06:45:36;;;;;;;8.20;4.40;;;15.10;99.90;;;13.20;100.00;100175.88;5028314;28;20132;-71
2021/10/02 06:48:05;;;;;;;8.38;4.45;;;15.10;99.90;;;13.22;100.00;100176.50;5028037;28;20061;-71
2021/10/02 06:50:34;;;;;;;8.63;4.55;;;15.10;99.90;;;13.23;100.00;100170.00;5040612;22;20551;-70
2021/10/02 06:53:02;;;;;;;7.60;4.43;;;15.20;99.90;;;13.26;100.00;100169.56;5046391;28;20157;-71
2021/10/02 06:55:30;;;;;;;7.07;4.32;;;15.20;99.90;;;13.31;100.00;100166.25;5048610;28;20040;-71
2021/10/02 06:57:57;;;;;;;8.30;4.30;;;15.20;99.90;;;13.41;100.00;100161.19;5045474;28;20047;-71
2021/10/02 07:00:25;;;;;;;7.88;4.22;;;15.20;99.90;;;13.45;100.00;100158.88;5048492;28;20049;-70
2021/10/02 07:02:53;;;;;;;7.43;4.07;;;15.20;99.90;;;13.52;100.00;100156.97;5048073;28;20053;-72
2021/10/02 07:05:21;;;;;;;6.40;4.25;;;15.20;99.90;;;13.57;100.00;100159.91;5048400;28;20059;-71
2021/10/02 07:07:48;;;;;;;8.27;4.00;;;15.30;99.90;;;13.65;100.00;100167.91;5048588;28;20110;-74
2021/10/02 07:10:17;;;;;;;10.50;4.15;;;15.30;99.90;;;13.70;100.00;100167.25;5046670;28;20049;-73
2021/10/02 07:12:45;;;;;;;10.93;3.92;;;15.30;99.90;;;13.76;100.00;100171.84;5047660;28;20480;-72
2021/10/02 07:15:12;;;;;;;7.20;4.07;;;15.40;99.90;;;13.78;100.00;100172.47;5046412;28;20057;-72
2021/10/02 07:17:40;;;;;;;7.05;3.95;;;15.40;99.90;;;13.75;100.00;100175.66;5048184;28;20054;-74
2021/10/02 07:20:12;;;;;;;5.55;3.20;;;15.50;99.90;;;13.83;100.00;100175.41;5047419;28;20052;-72
2021/10/02 07:22:39;;;;;;;6.57;3.53;;;15.50;99.90;;;13.80;100.00;100175.00;5048294;28;20053;-72
2021/10/02 07:25:10;;;;;;;6.18;3.60;;;15.50;99.90;;;13.77;100.00;100172.72;5047257;28;20040;-71
2021/10/02 07:27:39;;;;;;;8.45;3.80;;;15.50;99.90;;;13.72;100.00;100176.06;5047456;28;20045;-73
2021/10/02 07:30:10;;;;;;;5.75;2.88;;;15.60;99.90;;;13.75;100.00;100167.44;5032757;28;20047;-71
2021/10/02 07:32:38;;;;;;;7.10;3.17;;;15.60;99.90;;;13.85;100.00;100161.53;5028075;28;20041;-71
2021/10/02 07:35:09;;;;;;;6.38;3.42;;;15.60;99.90;;;13.89;100.00;100157.31;5035139;28;20072;-71
2021/10/02 07:37:37;;;;;;;5.80;3.17;;;15.60;99.90;;;13.95;100.00;100166.53;5047299;28;20053;-71
2021/10/02 07:40:07;;;;;;;5.78;3.13;;;15.60;99.90;;;13.87;100.00;100171.19;5045759;28;20521;-71
2021/10/02 07:42:37;;;;;;;5.25;2.80;;;15.60;99.90;;;13.84;100.00;100176.25;5045024;28;20087;-71
2021/10/02 07:45:07;;;;;;;8.52;3.38;;;15.70;99.90;;;13.83;100.00;100169.94;5046544;28;20421;-71
2021/10/02 07:47:41;;;;;;;6.53;2.90;;;15.70;99.90;;;13.82;100.00;100167.41;5047651;28;20045;-71
2021/10/02 07:50:13;;;;;;;6.50;2.83;;;15.70;99.90;;;13.83;100.00;100163.63;5044895;28;20056;-71
2021/10/02 07:52:42;;;;;;;4.72;2.90;;;15.70;99.90;;;13.85;100.00;100158.78;5046310;28;20094;-70
2021/10/02 07:55:13;;;;;;;7.28;2.92;;;15.70;99.90;;;13.96;100.00;100154.56;5046775;28;20904;-70
2021/10/02 07:57:43;;;;;;;6.23;2.67;;;15.70;99.90;;;13.98;100.00;100145.06;5045511;28;20431;-70
2021/10/02 08:00:13;;;;;;;5.15;2.85;;;15.70;99.90;;;14.07;100.00;100141.03;5046336;28;20288;-70
2021/10/02 08:02:44;;;;;;;3.73;2.13;;;15.70;99.90;;;14.08;100.00;100145.44;5039473;28;20516;-70
2021/10/02 08:05:13;;;;;;;4.28;2.40;;;15.80;99.90;;;14.17;100.00;100142.47;5038599;28;20428;-70
2021/10/02 08:07:43;;;;;;;4.38;2.33;;;15.80;99.90;;;14.21;100.00;100130.88;5042859;28;20131;-70
2021/10/02 08:10:12;;;;;;;6.30;2.25;;;15.80;99.90;;;14.21;100.00;100122.66;5041671;28;20119;-70
2021/10/02 08:12:40;;;;;;;4.75;2.17;;;15.80;99.90;;;14.28;100.00;100125.38;5035129;28;20130;-70
2021/10/02 08:15:09;;;;;;;4.80;2.00;;;15.80;99.90;;;14.33;100.00;100122.78;5034598;28;20040;-70
2021/10/02 08:17:40;;;;;;;3.85;2.17;;;15.90;99.90;;;14.39;100.00;100119.19;5035658;28;20050;-70
2021/10/02 08:20:13;;;;;;;3.80;1.80;;;15.90;99.90;;;14.44;100.00;100124.00;5043829;28;20735;-72
2021/10/02 08:22:43;;;;;;;3.88;1.90;;;15.90;99.90;;;14.45;100.00;100118.31;5049118;28;20041;-70
2021/10/02 08:25:13;;;;;;;5.15;2.00;;;15.90;99.90;;;14.48;100.00;100117.03;5043649;28;20417;-70
2021/10/02 08:27:42;;;;;;;10.07;1.70;;;15.90;99.90;;;14.51;100.00;100115.75;5047590;28;20045;-70
2021/10/02 08:30:13;;;;;;;2.90;1.50;;;16.00;99.90;;;14.50;100.00;100114.06;5049681;28;20064;-70
2021/10/02 08:32:40;;;;;;;5.07;1.88;;;16.00;99.90;;;14.54;100.00;100110.66;5042956;28;20532;-70
2021/10/02 08:35:10;;;;;;;6.45;1.52;;;16.00;99.90;;;14.54;100.00;100115.31;5043456;28;20037;-70
2021/10/02 08:37:39;;;;;;;4.63;2.10;;;16.00;99.90;;;14.55;100.00;100108.78;5043668;28;20504;-71
2021/10/02 08:40:11;;;;;;;3.60;1.90;;;16.00;99.90;;;14.70;100.00;100098.38;5047314;28;20076;-71
2021/10/02 08:42:39;;;;;;;3.63;2.17;;;16.10;99.90;;;14.86;100.00;100105.22;5043566;28;20094;-70
2021/10/02 08:45:09;;;;;;;3.58;1.60;;;16.10;99.90;;;14.96;100.00;100097.31;5042636;28;20079;-70
2021/10/02 08:47:39;;;;;;;7.68;1.80;;;16.20;99.90;;;14.96;100.00;100096.47;5048205;28;20061;-70
2021/10/02 08:50:09;;;;;;;3.92;1.67;;;16.20;99.90;;;15.07;100.00;100093.00;5049993;28;20511;-70
2021/10/02 08:52:39;;;;;;;4.63;1.70;;;16.10;99.90;;;15.17;100.00;100082.38;5050791;28;20053;-71
2021/10/02 08:55:09;;;;;;;3.27;1.43;;;16.20;99.90;;;15.30;100.00;100083.31;5045362;28;20681;-70
2021/10/02 08:57:38;;;;;;;3.95;1.80;;;16.20;99.90;;;15.38;100.00;100085.75;5049129;28;20041;-70
2021/10/02 09:00:10;;;;;;;2.88;1.50;;;16.30;99.90;;;15.43;100.00;100080.44;5050417;28;20049;-70
2021/10/02 09:02:38;;;;;;;;;;;16.30;99.90;;;15.42;100.00;100084.22;5031488;28;20394;-70
2021/10/02 09:05:10;;;;;;;3.20;1.70;;;16.40;99.90;;;15.47;100.00;100089.88;5043984;28;19937;-70
2021/10/02 09:07:39;;;;;;;3.10;1.60;;;16.40;99.90;;;15.53;100.00;100090.88;5033825;28;20111;-70
2021/10/02 09:10:10;;;;;;;4.22;2.10;;;16.50;99.90;;;15.56;100.00;100076.72;5034036;28;20045;-70
2021/10/02 09:12:39;;;;;;;4.55;1.90;;;16.50;99.90;;;15.55;100.00;100078.59;5043167;28;20048;-70
2021/10/02 09:15:09;;;;;;;4.55;1.70;;;16.60;99.90;;;15.49;100.00;100068.53;5035753;28;20045;-71
2021/10/02 09:17:36;;;;;;;4.20;1.90;;;16.60;99.90;;;15.53;100.00;100074.41;5049424;28;20076;-71
2021/10/02 09:20:06;;;;;;;3.65;1.80;;;16.60;99.90;;;15.70;100.00;100066.41;5050822;28;20122;-70
2021/10/02 09:22:34;;;;;;;3.42;1.90;;;16.70;99.90;;;15.80;100.00;100051.13;5046154;28;20124;-70
2021/10/02 09:25:06;;;;;;;4.72;2.47;;;16.70;99.90;;;15.85;100.00;100050.44;5043057;28;20131;-70
2021/10/02 09:27:36;;;;;;;3.17;1.80;;;16.70;99.90;;;15.81;100.00;100043.72;5049628;28;20673;-73
2021/10/02 09:30:08;;;;;;;4.35;1.80;;;16.80;99.90;;;15.87;100.00;100034.56;5040128;28;20505;-72
2021/10/02 09:32:39;;;;;;;4.55;1.70;;;16.80;99.90;;;15.92;100.00;100045.69;5050815;28;20049;-72
2021/10/02 09:35:12;;;;;;;4.43;1.75;;;16.80;99.90;;;15.93;100.00;100047.34;5050025;28;20052;-72
2021/10/02 09:37:42;;;;;;;3.00;1.58;;;16.90;99.90;;;15.96;100.00;100035.94;5056084;28;20090;-71
2021/10/02 09:40:17;;;;;;;5.47;2.00;;;16.80;99.90;;;15.93;100.00;100035.53;5055411;28;20049;-71
2021/10/02 09:42:47;;;;;;;4.35;1.80;;;16.90;99.90;;;15.94;100.00;100037.22;5068595;28;20105;-70
2021/10/02 09:45:19;;;;;;;4.20;2.10;;;16.90;99.90;;;15.88;100.00;100029.91;5055356;28;20048;-70
2021/10/02 09:47:51;;;;;;;4.20;1.80;;;16.90;99.70;;;15.97;100.00;100029.38;5048559;28;20076;-70
2021/10/02 09:50:21;;;;;;;5.97;2.13;;;16.90;99.30;;;16.01;100.00;100027.84;5050193;28;20118;-70
2021/10/02 09:52:54;;;;;;;5.07;2.15;;;17.00;99.70;;;16.06;100.00;100029.03;5046573;28;20498;-71
2021/10/02 09:55:26;;;;;;;4.32;2.17;;;17.00;99.00;;;16.01;100.00;100022.34;5039383;28;20574;-70
2021/10/02 09:57:58;;;;;;;4.00;1.92;;;17.00;99.40;;;15.97;100.00;100021.16;5042862;28;20040;-70
2021/10/02 10:00:28;;;;;;;5.80;2.22;;;17.00;99.50;;;15.94;100.00;100034.50;5045566;28;20555;-70
2021/10/02 10:02:58;;;;;;;5.73;1.87;;;17.00;99.00;;;15.87;100.00;100031.81;5040567;28;20041;-71
2021/10/02 10:05:32;;;;;;;4.97;2.28;;;17.10;99.20;;;15.83;100.00;100031.44;5044909;28;20049;-70
2021/10/02 10:08:02;;;;;;;3.58;2.03;;;17.10;99.30;;;15.83;100.00;100038.84;5039471;28;20098;-71
2021/10/02 10:10:32;;;;;;;3.38;1.80;;;17.10;98.40;;;15.87;100.00;100026.34;5060933;28;20167;-70
2021/10/02 10:13:05;;;;;;;4.45;1.90;;;17.10;98.50;;;15.88;100.00;100022.53;5053855;28;20048;-70
2021/10/02 10:15:38;;;;;;;4.25;2.03;;;17.10;98.50;;;16.00;99.48;100020.66;5049314;28;20044;-70
2021/10/02 10:18:07;;;;;;;3.75;2.00;;;17.10;98.10;;;16.10;99.39;100022.00;5047026;28;20036;-71
2021/10/02 10:20:51;;;;;;;4.38;2.10;;;17.10;98.20;;;16.12;99.99;100017.13;5029600;28;20060;-71
2021/10/02 10:23:28;;;;;;;4.55;2.00;;;17.00;98.40;;;16.03;100.00;100009.22;5046218;28;20056;-70
2021/10/02 10:25:59;;;;;;;5.88;2.20;;;17.10;98.80;;;16.02;100.00;100007.53;5043279;28;20112;-71
2021/10/02 10:28:30;;;;;;;3.80;1.88;;;17.20;98.60;;;16.06;100.00;99999.69;5034204;28;20050;-71
2021/10/02 10:31:13;;;;;;;3.72;1.85;;;17.20;98.50;;;16.08;100.00;99991.22;5042357;28;20045;-71
2021/10/02 10:33:42;;;;;;;3.17;1.73;;;17.20;98.00;;;16.10;98.04;99991.81;5040026;28;20065;-71
2021/10/02 10:36:12;;;;;;;4.43;2.17;;;17.20;97.80;;;16.06;100.00;99980.47;5044249;28;20572;-71
2021/10/02 10:38:41;;;;;;;2.55;1.50;;;17.30;98.10;;;16.18;98.66;99977.75;5037478;28;20042;-70
2021/10/02 10:41:10;;;;;;;3.65;1.77;;;17.20;97.10;;;16.23;97.79;99975.13;5028049;28;20037;-70
2021/10/02 10:43:39;;;;;;;7.50;1.85;;;17.20;97.30;;;16.25;98.07;99973.00;5027735;28;20065;-70
2021/10/02 10:46:09;;;;;;;4.57;1.77;;;17.30;97.70;;;16.24;98.63;99971.34;5033506;28;20033;-71
2021/10/02 10:48:37;;;;;;;3.27;1.43;;;17.30;97.50;;;16.24;98.31;99965.84;5028813;28;20049;-71
2021/10/02 10:51:07;;;;;;;3.38;1.70;;;17.30;97.10;;;16.23;97.38;99961.41;5028679;28;20167;-71
2021/10/02 10:53:36;;;;;;;2.92;1.50;;;17.30;96.90;;;16.26;96.57;99957.34;5028894;28;20081;-70
2021/10/02 10:56:06;;;;;;;4.05;1.80;;;17.30;95.60;;;16.24;95.87;99952.13;5034273;28;20049;-70
2021/10/02 10:58:36;;;;;;;5.97;2.15;;;17.30;95.70;;;16.21;95.95;99949.84;5027973;28;20053;-70
2021/10/02 11:01:05;;;;;;;4.68;2.60;;;17.30;96.50;;;16.20;96.40;99948.16;5045812;28;20044;-71
2021/10/02 11:03:41;;;;;;;5.18;3.47;;;17.30;96.20;;;16.20;97.00;99948.16;5047898;28;20052;-70
2021/10/02 11:06:10;;;;;;;9.57;6.00;;;17.30;96.40;;;16.25;97.61;99948.28;5045887;28;20037;-70
2021/10/02 11:09:01;;;;;;;12.70;8.88;;;17.30;96.90;;;16.32;98.09;99938.03;5036861;28;20506;-70